sensor_id;sensor_type;location;lat;lon;timestamp;P1;durP1;ratioP1;P2;durP2;ratioP2
71806;SDS011;59655;42.590;23.364;2023-04-03T00:00:59;5.43;;;2.78;;
71806;SDS011;59655;42.590;23.364;2023-04-03T00:03:26;7.07;;;3.60;;
71806;SDS011;59655;42.590;23.364;2023-04-03T00:05:51;8.38;;;4.05;;
71806;SDS011;59655;42.590;23.364;2023-04-03T00:08:16;10.50;;;4.53;;
71806;SDS011;59655;42.590;23.364;2023-04-03T00:10:42;9.15;;;4.85;;
71806;SDS011;59655;42.590;23.364;2023-04-03T00:13:08;9.52;;;4.88;;
71806;SDS011;59655;42.590;23.364;2023-04-03T00:15:34;8.73;;;4.43;;
71806;SDS011;59655;42.590;23.364;2023-04-03T00:18:00;5.32;;;2.83;;
71806;SDS011;59655;42.590;23.364;2023-04-03T00:20:26;5.85;;;2.83;;
71806;SDS011;59655;42.590;23.364;2023-04-03T00:22:52;5.72;;;3.00;;
71806;SDS011;59655;42.590;23.364;2023-04-03T00:25:18;4.97;;;2.33;;
71806;SDS011;59655;42.590;23.364;2023-04-03T00:27:44;4.43;;;2.00;;
71806;SDS011;59655;42.590;23.364;2023-04-03T00:30:10;5.85;;;2.30;;
71806;SDS011;59655;42.590;23.364;2023-04-03T00:32:39;5.85;;;2.83;;
71806;SDS011;59655;42.590;23.364;2023-04-03T00:35:05;5.80;;;2.65;;
71806;SDS011;59655;42.590;23.364;2023-04-03T00:37:30;5.13;;;2.42;;
71806;SDS011;59655;42.590;23.364;2023-04-03T00:39:56;4.70;;;2.33;;
71806;SDS011;59655;42.590;23.364;2023-04-03T00:42:21;3.15;;;1.30;;
71806;SDS011;59655;42.590;23.364;2023-04-03T00:47:13;1.52;;;0.70;;
71806;SDS011;59655;42.590;23.364;2023-04-03T00:49:41;1.20;;;0.70;;
71806;SDS011;59655;42.590;23.364;2023-04-03T00:52:09;1.80;;;0.65;;
71806;SDS011;59655;42.590;23.364;2023-04-03T00:54:38;2.47;;;1.20;;
71806;SDS011;59655;42.590;23.364;2023-04-03T00:57:06;3.05;;;1.40;;
71806;SDS011;59655;42.590;23.364;2023-04-03T00:59:33;7.55;;;3.25;;
71806;SDS011;59655;42.590;23.364;2023-04-03T01:02:00;4.75;;;2.65;;
71806;SDS011;59655;42.590;23.364;2023-04-03T01:04:34;1.80;;;1.05;;
71806;SDS011;59655;42.590;23.364;2023-04-03T01:07:04;1.50;;;0.90;;
71806;SDS011;59655;42.590;23.364;2023-04-03T01:09:32;1.77;;;0.90;;
71806;SDS011;59655;42.590;23.364;2023-04-03T01:14:42;1.48;;;0.77;;
71806;SDS011;59655;42.590;23.364;2023-04-03T01:22:38;3.13;;;1.25;;
71806;SDS011;59655;42.590;23.364;2023-04-03T01:25:21;3.35;;;1.40;;
71806;SDS011;59655;42.590;23.364;2023-04-03T01:27:47;3.70;;;2.15;;
71806;SDS011;59655;42.590;23.364;2023-04-03T01:30:12;4.75;;;2.75;;
71806;SDS011;59655;42.590;23.364;2023-04-03T01:32:41;5.60;;;2.58;;
71806;SDS011;59655;42.590;23.364;2023-04-03T01:35:08;3.90;;;1.90;;
71806;SDS011;59655;42.590;23.364;2023-04-03T01:37:35;3.50;;;1.75;;
71806;SDS011;59655;42.590;23.364;2023-04-03T01:40:01;3.15;;;1.65;;
71806;SDS011;59655;42.590;23.364;2023-04-03T01:42:26;2.95;;;1.63;;
71806;SDS011;59655;42.590;23.364;2023-04-03T01:44:52;3.85;;;2.00;;
71806;SDS011;59655;42.590;23.364;2023-04-03T01:47:17;3.22;;;1.73;;
71806;SDS011;59655;42.590;23.364;2023-04-03T01:49:43;4.82;;;2.70;;
71806;SDS011;59655;42.590;23.364;2023-04-03T01:52:08;4.22;;;1.85;;
71806;SDS011;59655;42.590;23.364;2023-04-03T01:54:33;3.85;;;1.85;;
71806;SDS011;59655;42.590;23.364;2023-04-03T01:56:59;4.68;;;1.92;;
71806;SDS011;59655;42.590;23.364;2023-04-03T01:59:25;3.30;;;1.90;;
71806;SDS011;59655;42.590;23.364;2023-04-03T02:01:50;4.47;;;2.40;;
71806;SDS011;59655;42.590;23.364;2023-04-03T02:04:15;3.45;;;1.85;;
71806;SDS011;59655;42.590;23.364;2023-04-03T02:06:41;4.03;;;2.10;;
71806;SDS011;59655;42.590;23.364;2023-04-03T02:09:06;4.78;;;2.50;;
71806;SDS011;59655;42.590;23.364;2023-04-03T02:11:32;5.03;;;2.17;;
71806;SDS011;59655;42.590;23.364;2023-04-03T02:13:58;6.32;;;2.10;;
71806;SDS011;59655;42.590;23.364;2023-04-03T02:16:23;4.70;;;2.50;;
71806;SDS011;59655;42.590;23.364;2023-04-03T02:18:49;4.63;;;1.92;;
71806;SDS011;59655;42.590;23.364;2023-04-03T02:21:15;5.38;;;1.60;;
71806;SDS011;59655;42.590;23.364;2023-04-03T02:23:40;3.15;;;1.52;;
71806;SDS011;59655;42.590;23.364;2023-04-03T02:26:15;2.80;;;1.40;;
71806;SDS011;59655;42.590;23.364;2023-04-03T02:28:41;4.03;;;1.45;;
71806;SDS011;59655;42.590;23.364;2023-04-03T02:31:07;3.95;;;1.55;;
71806;SDS011;59655;42.590;23.364;2023-04-03T02:33:34;4.40;;;1.63;;
71806;SDS011;59655;42.590;23.364;2023-04-03T02:36:01;3.30;;;1.38;;
71806;SDS011;59655;42.590;23.364;2023-04-03T02:38:29;4.07;;;1.50;;
71806;SDS011;59655;42.590;23.364;2023-04-03T02:41:05;3.30;;;1.13;;
71806;SDS011;59655;42.590;23.364;2023-04-03T02:43:32;3.75;;;1.30;;
71806;SDS011;59655;42.590;23.364;2023-04-03T02:45:59;9.05;;;4.03;;
71806;SDS011;59655;42.590;23.364;2023-04-03T02:48:25;5.07;;;2.20;;
71806;SDS011;59655;42.590;23.364;2023-04-03T02:50:50;3.42;;;1.17;;
71806;SDS011;59655;42.590;23.364;2023-04-03T02:53:16;3.90;;;1.20;;
71806;SDS011;59655;42.590;23.364;2023-04-03T02:55:42;4.97;;;1.10;;
71806;SDS011;59655;42.590;23.364;2023-04-03T02:58:07;2.25;;;1.00;;
71806;SDS011;59655;42.590;23.364;2023-04-03T03:00:33;3.65;;;1.65;;
71806;SDS011;59655;42.590;23.364;2023-04-03T03:02:59;2.08;;;1.00;;
71806;SDS011;59655;42.590;23.364;2023-04-03T03:05:25;2.95;;;1.30;;
71806;SDS011;59655;42.590;23.364;2023-04-03T03:07:52;7.68;;;2.00;;
71806;SDS011;59655;42.590;23.364;2023-04-03T03:10:17;4.68;;;1.77;;
71806;SDS011;59655;42.590;23.364;2023-04-03T03:12:43;5.28;;;2.97;;
71806;SDS011;59655;42.590;23.364;2023-04-03T03:15:08;6.13;;;2.65;;
71806;SDS011;59655;42.590;23.364;2023-04-03T03:17:34;2.72;;;1.40;;
71806;SDS011;59655;42.590;23.364;2023-04-03T03:20:01;3.28;;;1.30;;
71806;SDS011;59655;42.590;23.364;2023-04-03T03:22:27;5.85;;;2.85;;
71806;SDS011;59655;42.590;23.364;2023-04-03T03:24:53;6.53;;;2.90;;
71806;SDS011;59655;42.590;23.364;2023-04-03T03:27:19;8.10;;;4.47;;
71806;SDS011;59655;42.590;23.364;2023-04-03T03:29:44;7.30;;;3.92;;
71806;SDS011;59655;42.590;23.364;2023-04-03T03:32:10;6.82;;;4.13;;
71806;SDS011;59655;42.590;23.364;2023-04-03T03:34:35;9.65;;;5.25;;
71806;SDS011;59655;42.590;23.364;2023-04-03T03:37:01;9.18;;;5.65;;
71806;SDS011;59655;42.590;23.364;2023-04-03T03:39:26;4.18;;;2.58;;
71806;SDS011;59655;42.590;23.364;2023-04-03T03:41:52;3.55;;;1.98;;
71806;SDS011;59655;42.590;23.364;2023-04-03T03:44:18;4.43;;;1.90;;
71806;SDS011;59655;42.590;23.364;2023-04-03T03:46:44;4.72;;;1.83;;
71806;SDS011;59655;42.590;23.364;2023-04-03T03:49:10;7.22;;;2.35;;
71806;SDS011;59655;42.590;23.364;2023-04-03T03:51:36;9.45;;;2.92;;
71806;SDS011;59655;42.590;23.364;2023-04-03T03:54:02;8.18;;;2.65;;
71806;SDS011;59655;42.590;23.364;2023-04-03T03:56:28;6.28;;;3.22;;
71806;SDS011;59655;42.590;23.364;2023-04-03T03:58:54;10.68;;;3.42;;
71806;SDS011;59655;42.590;23.364;2023-04-03T04:01:21;5.38;;;3.38;;
71806;SDS011;59655;42.590;23.364;2023-04-03T04:03:47;6.32;;;2.40;;
71806;SDS011;59655;42.590;23.364;2023-04-03T04:06:13;7.25;;;2.20;;
71806;SDS011;59655;42.590;23.364;2023-04-03T04:08:39;4.45;;;2.55;;
71806;SDS011;59655;42.590;23.364;2023-04-03T04:11:05;7.90;;;2.03;;
71806;SDS011;59655;42.590;23.364;2023-04-03T04:13:30;9.48;;;3.85;;
71806;SDS011;59655;42.590;23.364;2023-04-03T04:15:56;13.95;;;8.90;;
71806;SDS011;59655;42.590;23.364;2023-04-03T04:18:21;14.43;;;8.82;;
71806;SDS011;59655;42.590;23.364;2023-04-03T04:20:47;12.38;;;8.10;;
71806;SDS011;59655;42.590;23.364;2023-04-03T04:23:13;10.55;;;6.88;;
71806;SDS011;59655;42.590;23.364;2023-04-03T04:25:39;13.13;;;5.18;;
71806;SDS011;59655;42.590;23.364;2023-04-03T04:28:04;9.15;;;4.72;;
71806;SDS011;59655;42.590;23.364;2023-04-03T04:30:30;15.60;;;4.75;;
71806;SDS011;59655;42.590;23.364;2023-04-03T04:32:56;15.02;;;5.38;;
71806;SDS011;59655;42.590;23.364;2023-04-03T04:35:21;14.35;;;3.95;;
71806;SDS011;59655;42.590;23.364;2023-04-03T04:37:50;11.40;;;5.00;;
71806;SDS011;59655;42.590;23.364;2023-04-03T04:40:16;5.32;;;2.70;;
71806;SDS011;59655;42.590;23.364;2023-04-03T04:42:41;6.80;;;3.10;;
71806;SDS011;59655;42.590;23.364;2023-04-03T04:45:07;11.85;;;3.53;;
71806;SDS011;59655;42.590;23.364;2023-04-03T04:47:32;12.25;;;4.00;;
71806;SDS011;59655;42.590;23.364;2023-04-03T04:49:58;8.90;;;6.32;;
71806;SDS011;59655;42.590;23.364;2023-04-03T04:52:23;16.40;;;7.55;;
71806;SDS011;59655;42.590;23.364;2023-04-03T04:54:49;14.90;;;9.57;;
71806;SDS011;59655;42.590;23.364;2023-04-03T04:57:14;16.15;;;8.20;;
71806;SDS011;59655;42.590;23.364;2023-04-03T04:59:40;17.52;;;7.40;;
71806;SDS011;59655;42.590;23.364;2023-04-03T05:02:06;12.55;;;7.07;;
71806;SDS011;59655;42.590;23.364;2023-04-03T05:04:31;13.25;;;7.97;;
71806;SDS011;59655;42.590;23.364;2023-04-03T05:06:58;18.58;;;7.10;;
71806;SDS011;59655;42.590;23.364;2023-04-03T05:09:24;13.63;;;6.90;;
71806;SDS011;59655;42.590;23.364;2023-04-03T05:11:50;10.48;;;5.32;;
71806;SDS011;59655;42.590;23.364;2023-04-03T05:14:15;9.93;;;4.43;;
71806;SDS011;59655;42.590;23.364;2023-04-03T05:16:40;10.88;;;6.75;;
71806;SDS011;59655;42.590;23.364;2023-04-03T05:19:06;10.95;;;7.03;;
71806;SDS011;59655;42.590;23.364;2023-04-03T05:21:31;9.40;;;5.85;;
71806;SDS011;59655;42.590;23.364;2023-04-03T05:23:58;8.65;;;5.88;;
71806;SDS011;59655;42.590;23.364;2023-04-03T05:26:24;9.55;;;5.60;;
71806;SDS011;59655;42.590;23.364;2023-04-03T05:28:51;7.30;;;3.65;;
71806;SDS011;59655;42.590;23.364;2023-04-03T05:31:16;7.95;;;3.30;;
71806;SDS011;59655;42.590;23.364;2023-04-03T05:33:42;13.60;;;5.10;;
71806;SDS011;59655;42.590;23.364;2023-04-03T05:36:07;10.82;;;5.80;;
71806;SDS011;59655;42.590;23.364;2023-04-03T05:38:33;11.77;;;5.63;;
71806;SDS011;59655;42.590;23.364;2023-04-03T05:40:59;9.50;;;4.30;;
71806;SDS011;59655;42.590;23.364;2023-04-03T05:43:24;7.57;;;4.05;;
71806;SDS011;59655;42.590;23.364;2023-04-03T05:45:50;4.72;;;3.15;;
71806;SDS011;59655;42.590;23.364;2023-04-03T05:48:16;4.20;;;2.20;;
71806;SDS011;59655;42.590;23.364;2023-04-03T05:50:42;3.63;;;2.47;;
71806;SDS011;59655;42.590;23.364;2023-04-03T05:53:13;6.13;;;3.45;;
71806;SDS011;59655;42.590;23.364;2023-04-03T05:55:43;5.03;;;2.40;;
71806;SDS011;59655;42.590;23.364;2023-04-03T05:58:08;2.65;;;1.38;;
71806;SDS011;59655;42.590;23.364;2023-04-03T06:00:34;3.55;;;1.50;;
71806;SDS011;59655;42.590;23.364;2023-04-03T06:02:59;2.53;;;1.48;;
71806;SDS011;59655;42.590;23.364;2023-04-03T06:05:25;2.58;;;1.30;;
71806;SDS011;59655;42.590;23.364;2023-04-03T06:07:50;2.17;;;1.30;;
71806;SDS011;59655;42.590;23.364;2023-04-03T06:10:16;2.63;;;1.15;;
71806;SDS011;59655;42.590;23.364;2023-04-03T06:12:42;2.50;;;1.25;;
71806;SDS011;59655;42.590;23.364;2023-04-03T06:15:08;2.83;;;1.30;;
71806;SDS011;59655;42.590;23.364;2023-04-03T06:17:35;2.47;;;1.20;;
71806;SDS011;59655;42.590;23.364;2023-04-03T06:20:01;4.25;;;1.38;;
71806;SDS011;59655;42.590;23.364;2023-04-03T06:22:27;3.25;;;1.60;;
71806;SDS011;59655;42.590;23.364;2023-04-03T06:24:54;4.07;;;2.08;;
71806;SDS011;59655;42.590;23.364;2023-04-03T06:27:20;4.07;;;1.90;;
71806;SDS011;59655;42.590;23.364;2023-04-03T06:29:45;4.10;;;2.15;;
71806;SDS011;59655;42.590;23.364;2023-04-03T06:32:11;5.85;;;2.40;;
71806;SDS011;59655;42.590;23.364;2023-04-03T06:34:36;6.57;;;2.33;;
71806;SDS011;59655;42.590;23.364;2023-04-03T06:37:02;5.07;;;2.35;;
71806;SDS011;59655;42.590;23.364;2023-04-03T06:39:27;4.30;;;2.25;;
71806;SDS011;59655;42.590;23.364;2023-04-03T06:41:53;4.72;;;2.03;;
71806;SDS011;59655;42.590;23.364;2023-04-03T06:44:18;4.82;;;2.35;;
71806;SDS011;59655;42.590;23.364;2023-04-03T06:46:44;3.92;;;2.30;;
71806;SDS011;59655;42.590;23.364;2023-04-03T06:49:11;4.03;;;2.20;;
71806;SDS011;59655;42.590;23.364;2023-04-03T06:51:37;5.05;;;3.08;;
71806;SDS011;59655;42.590;23.364;2023-04-03T06:54:03;4.47;;;2.63;;
71806;SDS011;59655;42.590;23.364;2023-04-03T06:56:30;3.60;;;1.95;;
71806;SDS011;59655;42.590;23.364;2023-04-03T06:58:56;3.28;;;1.98;;
71806;SDS011;59655;42.590;23.364;2023-04-03T07:01:26;4.20;;;2.63;;
71806;SDS011;59655;42.590;23.364;2023-04-03T07:03:55;10.52;;;3.58;;
71806;SDS011;59655;42.590;23.364;2023-04-03T07:06:21;8.05;;;4.00;;
71806;SDS011;59655;42.590;23.364;2023-04-03T07:08:47;6.68;;;3.25;;
71806;SDS011;59655;42.590;23.364;2023-04-03T07:13:41;5.45;;;2.80;;
71806;SDS011;59655;42.590;23.364;2023-04-03T07:16:07;7.72;;;2.78;;
71806;SDS011;59655;42.590;23.364;2023-04-03T07:18:33;5.82;;;3.10;;
71806;SDS011;59655;42.590;23.364;2023-04-03T07:20:59;3.67;;;2.28;;
71806;SDS011;59655;42.590;23.364;2023-04-03T07:23:25;8.27;;;2.85;;
71806;SDS011;59655;42.590;23.364;2023-04-03T07:25:51;6.43;;;2.38;;
71806;SDS011;59655;42.590;23.364;2023-04-03T07:28:17;5.93;;;2.80;;
71806;SDS011;59655;42.590;23.364;2023-04-03T07:30:45;5.20;;;3.50;;
71806;SDS011;59655;42.590;23.364;2023-04-03T07:33:12;4.95;;;3.13;;
71806;SDS011;59655;42.590;23.364;2023-04-03T07:35:39;6.20;;;3.33;;
71806;SDS011;59655;42.590;23.364;2023-04-03T07:38:05;4.43;;;2.95;;
71806;SDS011;59655;42.590;23.364;2023-04-03T07:40:31;6.75;;;3.60;;
71806;SDS011;59655;42.590;23.364;2023-04-03T07:42:57;4.22;;;2.95;;
71806;SDS011;59655;42.590;23.364;2023-04-03T07:45:23;5.15;;;3.15;;
71806;SDS011;59655;42.590;23.364;2023-04-03T07:47:49;4.15;;;2.53;;
71806;SDS011;59655;42.590;23.364;2023-04-03T07:50:14;4.30;;;2.25;;
71806;SDS011;59655;42.590;23.364;2023-04-03T07:52:40;3.72;;;2.20;;
71806;SDS011;59655;42.590;23.364;2023-04-03T07:55:06;9.90;;;3.17;;
71806;SDS011;59655;42.590;23.364;2023-04-03T07:57:32;6.70;;;3.70;;
71806;SDS011;59655;42.590;23.364;2023-04-03T07:59:57;6.70;;;3.35;;
71806;SDS011;59655;42.590;23.364;2023-04-03T08:02:23;10.43;;;3.90;;
71806;SDS011;59655;42.590;23.364;2023-04-03T08:04:49;8.18;;;3.53;;
71806;SDS011;59655;42.590;23.364;2023-04-03T08:07:14;8.57;;;3.60;;
71806;SDS011;59655;42.590;23.364;2023-04-03T08:09:40;9.75;;;3.97;;
71806;SDS011;59655;42.590;23.364;2023-04-03T08:12:06;9.02;;;4.55;;
71806;SDS011;59655;42.590;23.364;2023-04-03T08:14:32;10.80;;;4.63;;
71806;SDS011;59655;42.590;23.364;2023-04-03T08:16:59;7.00;;;3.88;;
71806;SDS011;59655;42.590;23.364;2023-04-03T08:19:26;8.23;;;3.70;;
71806;SDS011;59655;42.590;23.364;2023-04-03T08:21:51;6.68;;;3.63;;
71806;SDS011;59655;42.590;23.364;2023-04-03T08:24:17;8.15;;;4.38;;
71806;SDS011;59655;42.590;23.364;2023-04-03T08:26:43;6.03;;;3.53;;
71806;SDS011;59655;42.590;23.364;2023-04-03T08:29:08;6.70;;;3.28;;
71806;SDS011;59655;42.590;23.364;2023-04-03T08:31:34;6.88;;;3.10;;
71806;SDS011;59655;42.590;23.364;2023-04-03T08:33:59;4.72;;;3.03;;
71806;SDS011;59655;42.590;23.364;2023-04-03T08:36:26;6.93;;;2.60;;
71806;SDS011;59655;42.590;23.364;2023-04-03T08:38:53;4.60;;;2.55;;
71806;SDS011;59655;42.590;23.364;2023-04-03T08:44:14;4.28;;;1.80;;
71806;SDS011;59655;42.590;23.364;2023-04-03T08:49:27;4.13;;;2.03;;
71806;SDS011;59655;42.590;23.364;2023-04-03T08:51:59;3.28;;;1.50;;
71806;SDS011;59655;42.590;23.364;2023-04-03T08:54:29;3.28;;;1.20;;
71806;SDS011;59655;42.590;23.364;2023-04-03T08:56:58;3.22;;;1.20;;
71806;SDS011;59655;42.590;23.364;2023-04-03T08:59:31;2.42;;;1.02;;
71806;SDS011;59655;42.590;23.364;2023-04-03T09:01:59;1.95;;;0.80;;
71806;SDS011;59655;42.590;23.364;2023-04-03T09:04:31;1.75;;;0.90;;
71806;SDS011;59655;42.590;23.364;2023-04-03T09:06:59;2.65;;;0.98;;
71806;SDS011;59655;42.590;23.364;2023-04-03T09:09:35;2.85;;;0.77;;
71806;SDS011;59655;42.590;23.364;2023-04-03T09:12:23;2.00;;;0.90;;
71806;SDS011;59655;42.590;23.364;2023-04-03T09:25:46;2.65;;;1.23;;
71806;SDS011;59655;42.590;23.364;2023-04-03T09:28:12;1.80;;;0.90;;
71806;SDS011;59655;42.590;23.364;2023-04-03T09:30:38;1.92;;;1.00;;
71806;SDS011;59655;42.590;23.364;2023-04-03T09:33:04;1.63;;;1.02;;
71806;SDS011;59655;42.590;23.364;2023-04-03T09:35:31;1.38;;;0.88;;
71806;SDS011;59655;42.590;23.364;2023-04-03T09:37:59;2.05;;;0.90;;
71806;SDS011;59655;42.590;23.364;2023-04-03T09:42:56;1.25;;;0.80;;
71806;SDS011;59655;42.590;23.364;2023-04-03T09:45:33;2.65;;;1.00;;
71806;SDS011;59655;42.590;23.364;2023-04-03T09:48:13;2.35;;;1.17;;
71806;SDS011;59655;42.590;23.364;2023-04-03T09:50:53;2.03;;;0.90;;
71806;SDS011;59655;42.590;23.364;2023-04-03T09:53:40;2.50;;;0.75;;
71806;SDS011;59655;42.590;23.364;2023-04-03T09:56:26;3.38;;;1.50;;
71806;SDS011;59655;42.590;23.364;2023-04-03T10:01:28;2.72;;;1.13;;
71806;SDS011;59655;42.590;23.364;2023-04-03T10:06:34;2.53;;;1.10;;
71806;SDS011;59655;42.590;23.364;2023-04-03T10:09:04;2.22;;;1.13;;
71806;SDS011;59655;42.590;23.364;2023-04-03T10:12:08;3.33;;;1.23;;
71806;SDS011;59655;42.590;23.364;2023-04-03T10:14:37;4.22;;;1.38;;
71806;SDS011;59655;42.590;23.364;2023-04-03T10:19:46;3.35;;;1.02;;
71806;SDS011;59655;42.590;23.364;2023-04-03T10:22:18;1.70;;;0.82;;
71806;SDS011;59655;42.590;23.364;2023-04-03T10:49:23;2.58;;;1.40;;
71806;SDS011;59655;42.590;23.364;2023-04-03T10:54:34;3.00;;;1.60;;
71806;SDS011;59655;42.590;23.364;2023-04-03T10:57:01;2.58;;;1.45;;
71806;SDS011;59655;42.590;23.364;2023-04-03T10:59:31;2.50;;;1.50;;
71806;SDS011;59655;42.590;23.364;2023-04-03T11:02:01;2.85;;;1.80;;
71806;SDS011;59655;42.590;23.364;2023-04-03T11:04:31;7.90;;;4.78;;
71806;SDS011;59655;42.590;23.364;2023-04-03T11:07:01;6.38;;;3.90;;
71806;SDS011;59655;42.590;23.364;2023-04-03T11:09:34;3.80;;;1.98;;
71806;SDS011;59655;42.590;23.364;2023-04-03T11:12:06;4.85;;;2.53;;
71806;SDS011;59655;42.590;23.364;2023-04-03T11:14:39;9.38;;;5.00;;
71806;SDS011;59655;42.590;23.364;2023-04-03T11:19:45;7.50;;;4.13;;
71806;SDS011;59655;42.590;23.364;2023-04-03T11:22:25;9.27;;;4.07;;
71806;SDS011;59655;42.590;23.364;2023-04-03T11:25:02;10.57;;;5.72;;
71806;SDS011;59655;42.590;23.364;2023-04-03T11:27:37;10.35;;;5.93;;
71806;SDS011;59655;42.590;23.364;2023-04-03T11:30:09;4.57;;;3.10;;
71806;SDS011;59655;42.590;23.364;2023-04-03T11:32:48;4.57;;;3.00;;
71806;SDS011;59655;42.590;23.364;2023-04-03T11:35:19;3.35;;;2.22;;
71806;SDS011;59655;42.590;23.364;2023-04-03T11:37:47;7.45;;;3.60;;
71806;SDS011;59655;42.590;23.364;2023-04-03T11:42:40;11.05;;;7.45;;
71806;SDS011;59655;42.590;23.364;2023-04-03T11:50:30;15.40;;;8.45;;
71806;SDS011;59655;42.590;23.364;2023-04-03T12:11:39;3.35;;;1.52;;
71806;SDS011;59655;42.590;23.364;2023-04-03T12:26:47;8.82;;;4.25;;
71806;SDS011;59655;42.590;23.364;2023-04-03T12:35:30;11.05;;;6.35;;
71806;SDS011;59655;42.590;23.364;2023-04-03T12:37:35;11.77;;;6.32;;
71806;SDS011;59655;42.590;23.364;2023-04-03T12:48:47;10.02;;;6.72;;
71806;SDS011;59655;42.590;23.364;2023-04-03T12:51:22;6.60;;;3.13;;
71806;SDS011;59655;42.590;23.364;2023-04-03T12:54:50;7.60;;;4.75;;
71806;SDS011;59655;42.590;23.364;2023-04-03T12:56:50;8.75;;;6.13;;
71806;SDS011;59655;42.590;23.364;2023-04-03T13:01:55;5.45;;;3.58;;
71806;SDS011;59655;42.590;23.364;2023-04-03T13:04:22;2.63;;;1.90;;
71806;SDS011;59655;42.590;23.364;2023-04-03T13:06:48;2.95;;;2.03;;
71806;SDS011;59655;42.590;23.364;2023-04-03T13:09:18;5.75;;;3.50;;
71806;SDS011;59655;42.590;23.364;2023-04-03T13:11:46;5.13;;;3.40;;
71806;SDS011;59655;42.590;23.364;2023-04-03T13:14:16;6.38;;;3.50;;
71806;SDS011;59655;42.590;23.364;2023-04-03T13:16:57;7.45;;;5.68;;
71806;SDS011;59655;42.590;23.364;2023-04-03T13:19:25;7.35;;;5.47;;
71806;SDS011;59655;42.590;23.364;2023-04-03T13:21:57;7.57;;;5.70;;
71806;SDS011;59655;42.590;23.364;2023-04-03T13:24:30;12.18;;;10.50;;
71806;SDS011;59655;42.590;23.364;2023-04-03T13:26:59;7.18;;;5.50;;
71806;SDS011;59655;42.590;23.364;2023-04-03T13:29:27;8.07;;;6.93;;
71806;SDS011;59655;42.590;23.364;2023-04-03T13:31:55;4.78;;;2.70;;
71806;SDS011;59655;42.590;23.364;2023-04-03T13:34:23;8.00;;;7.20;;
71806;SDS011;59655;42.590;23.364;2023-04-03T13:41:48;11.57;;;8.25;;
71806;SDS011;59655;42.590;23.364;2023-04-03T13:49:22;11.70;;;7.03;;
71806;SDS011;59655;42.590;23.364;2023-04-03T13:51:54;14.05;;;9.48;;
71806;SDS011;59655;42.590;23.364;2023-04-03T13:54:22;14.07;;;8.23;;
71806;SDS011;59655;42.590;23.364;2023-04-03T13:56:54;12.48;;;8.05;;
71806;SDS011;59655;42.590;23.364;2023-04-03T13:59:31;13.38;;;9.75;;
71806;SDS011;59655;42.590;23.364;2023-04-03T14:04:30;12.27;;;7.22;;
71806;SDS011;59655;42.590;23.364;2023-04-03T14:06:58;15.55;;;7.82;;
71806;SDS011;59655;42.590;23.364;2023-04-03T14:09:25;21.73;;;9.00;;
71806;SDS011;59655;42.590;23.364;2023-04-03T14:11:57;92.75;;;35.60;;
71806;SDS011;59655;42.590;23.364;2023-04-03T14:14:31;108.25;;;42.25;;
71806;SDS011;59655;42.590;23.364;2023-04-03T14:16:59;73.95;;;36.03;;
71806;SDS011;59655;42.590;23.364;2023-04-03T14:21:55;9.70;;;5.80;;
71806;SDS011;59655;42.590;23.364;2023-04-03T14:24:21;10.13;;;7.40;;
71806;SDS011;59655;42.590;23.364;2023-04-03T14:26:47;10.25;;;6.25;;
71806;SDS011;59655;42.590;23.364;2023-04-03T14:29:17;14.60;;;8.27;;
71806;SDS011;59655;42.590;23.364;2023-04-03T14:31:44;14.32;;;9.20;;
71806;SDS011;59655;42.590;23.364;2023-04-03T14:34:11;56.92;;;36.25;;
71806;SDS011;59655;42.590;23.364;2023-04-03T14:36:37;50.40;;;40.47;;
71806;SDS011;59655;42.590;23.364;2023-04-03T14:39:04;17.50;;;12.68;;
71806;SDS011;59655;42.590;23.364;2023-04-03T14:41:31;9.50;;;7.22;;
71806;SDS011;59655;42.590;23.364;2023-04-03T14:43:56;9.68;;;5.43;;
71806;SDS011;59655;42.590;23.364;2023-04-03T14:48:47;22.05;;;12.75;;
71806;SDS011;59655;42.590;23.364;2023-04-03T14:51:14;18.33;;;11.10;;
71806;SDS011;59655;42.590;23.364;2023-04-03T14:53:41;27.85;;;13.77;;
71806;SDS011;59655;42.590;23.364;2023-04-03T14:56:12;49.13;;;25.75;;
71806;SDS011;59655;42.590;23.364;2023-04-03T14:58:38;28.00;;;17.90;;
71806;SDS011;59655;42.590;23.364;2023-04-03T15:01:03;74.38;;;33.65;;
71806;SDS011;59655;42.590;23.364;2023-04-03T15:03:29;81.53;;;34.17;;
71806;SDS011;59655;42.590;23.364;2023-04-03T15:05:54;92.43;;;38.15;;
71806;SDS011;59655;42.590;23.364;2023-04-03T15:08:23;25.95;;;13.32;;
71806;SDS011;59655;42.590;23.364;2023-04-03T15:10:51;12.52;;;7.68;;
71806;SDS011;59655;42.590;23.364;2023-04-03T15:13:21;14.95;;;7.47;;
71806;SDS011;59655;42.590;23.364;2023-04-03T15:15:47;12.15;;;6.65;;
71806;SDS011;59655;42.590;23.364;2023-04-03T15:18:14;13.15;;;6.82;;
71806;SDS011;59655;42.590;23.364;2023-04-03T15:20:45;11.00;;;5.60;;
71806;SDS011;59655;42.590;23.364;2023-04-03T15:23:12;34.97;;;11.27;;
71806;SDS011;59655;42.590;23.364;2023-04-03T15:25:40;13.30;;;6.05;;
71806;SDS011;59655;42.590;23.364;2023-04-03T15:28:22;25.48;;;11.68;;
71806;SDS011;59655;42.590;23.364;2023-04-03T15:30:51;11.48;;;4.82;;
71806;SDS011;59655;42.590;23.364;2023-04-03T15:33:17;54.55;;;22.13;;
71806;SDS011;59655;42.590;23.364;2023-04-03T15:35:42;36.60;;;15.45;;
71806;SDS011;59655;42.590;23.364;2023-04-03T15:38:08;14.52;;;7.40;;
71806;SDS011;59655;42.590;23.364;2023-04-03T15:40:34;2.92;;;1.80;;
71806;SDS011;59655;42.590;23.364;2023-04-03T15:43:00;5.35;;;3.08;;
71806;SDS011;59655;42.590;23.364;2023-04-03T15:45:26;63.55;;;24.02;;
71806;SDS011;59655;42.590;23.364;2023-04-03T15:47:54;9.18;;;3.88;;
71806;SDS011;59655;42.590;23.364;2023-04-03T15:50:20;3.85;;;2.08;;
71806;SDS011;59655;42.590;23.364;2023-04-03T15:52:47;8.68;;;3.50;;
71806;SDS011;59655;42.590;23.364;2023-04-03T15:55:16;9.07;;;4.53;;
71806;SDS011;59655;42.590;23.364;2023-04-03T15:57:41;46.30;;;17.70;;
71806;SDS011;59655;42.590;23.364;2023-04-03T16:00:07;13.15;;;5.90;;
71806;SDS011;59655;42.590;23.364;2023-04-03T16:02:33;45.10;;;24.58;;
71806;SDS011;59655;42.590;23.364;2023-04-03T16:04:59;34.17;;;19.88;;
71806;SDS011;59655;42.590;23.364;2023-04-03T16:07:25;19.48;;;10.35;;
71806;SDS011;59655;42.590;23.364;2023-04-03T16:09:51;37.53;;;18.60;;
71806;SDS011;59655;42.590;23.364;2023-04-03T16:12:17;36.30;;;17.13;;
71806;SDS011;59655;42.590;23.364;2023-04-03T16:14:42;30.40;;;15.88;;
71806;SDS011;59655;42.590;23.364;2023-04-03T16:17:07;12.60;;;6.43;;
71806;SDS011;59655;42.590;23.364;2023-04-03T16:19:33;8.43;;;5.10;;
71806;SDS011;59655;42.590;23.364;2023-04-03T16:21:58;23.55;;;13.85;;
71806;SDS011;59655;42.590;23.364;2023-04-03T16:24:24;20.55;;;12.65;;
71806;SDS011;59655;42.590;23.364;2023-04-03T16:26:50;7.28;;;4.78;;
71806;SDS011;59655;42.590;23.364;2023-04-03T16:29:15;13.98;;;8.60;;
71806;SDS011;59655;42.590;23.364;2023-04-03T16:31:41;11.73;;;6.55;;
71806;SDS011;59655;42.590;23.364;2023-04-03T16:34:07;4.55;;;2.50;;
71806;SDS011;59655;42.590;23.364;2023-04-03T16:36:32;12.05;;;8.45;;
71806;SDS011;59655;42.590;23.364;2023-04-03T16:38:57;45.20;;;32.75;;
71806;SDS011;59655;42.590;23.364;2023-04-03T16:41:23;32.25;;;20.65;;
71806;SDS011;59655;42.590;23.364;2023-04-03T16:43:48;23.10;;;14.55;;
71806;SDS011;59655;42.590;23.364;2023-04-03T16:46:15;27.35;;;17.30;;
71806;SDS011;59655;42.590;23.364;2023-04-03T16:48:40;17.75;;;10.60;;
71806;SDS011;59655;42.590;23.364;2023-04-03T16:51:06;19.45;;;12.25;;
71806;SDS011;59655;42.590;23.364;2023-04-03T16:53:31;6.93;;;4.50;;